sensor_id;sensor_type;location;lat;lon;timestamp;temperature;humidity
8633;DHT22;4354;49.832;10.746;2023-08-06T00:00:55;15.60;81.40
8633;DHT22;4354;49.832;10.746;2023-08-06T00:03:22;15.60;91.00
8633;DHT22;4354;49.832;10.746;2023-08-06T00:05:49;15.70;95.70
8633;DHT22;4354;49.832;10.746;2023-08-06T00:08:16;15.60;94.70
8633;DHT22;4354;49.832;10.746;2023-08-06T00:10:43;15.60;94.00
8633;DHT22;4354;49.832;10.746;2023-08-06T00:13:10;15.50;99.90
8633;DHT22;4354;49.832;10.746;2023-08-06T00:15:36;15.50;95.40
8633;DHT22;4354;49.832;10.746;2023-08-06T00:18:03;15.40;90.30
8633;DHT22;4354;49.832;10.746;2023-08-06T00:20:30;15.40;82.90
8633;DHT22;4354;49.832;10.746;2023-08-06T00:22:57;15.40;69.20
8633;DHT22;4354;49.832;10.746;2023-08-06T00:25:24;15.40;92.40
8633;DHT22;4354;49.832;10.746;2023-08-06T00:27:50;15.20;95.40
8633;DHT22;4354;49.832;10.746;2023-08-06T00:30:17;15.20;99.00
8633;DHT22;4354;49.832;10.746;2023-08-06T00:32:44;15.10;91.90
8633;DHT22;4354;49.832;10.746;2023-08-06T00:35:11;15.10;95.60
8633;DHT22;4354;49.832;10.746;2023-08-06T00:37:40;15.00;91.70
8633;DHT22;4354;49.832;10.746;2023-08-06T00:40:07;15.00;99.90
8633;DHT22;4354;49.832;10.746;2023-08-06T00:42:35;15.00;99.90
8633;DHT22;4354;49.832;10.746;2023-08-06T00:45:02;15.10;99.90
8633;DHT22;4354;49.832;10.746;2023-08-06T00:47:29;15.00;99.90
8633;DHT22;4354;49.832;10.746;2023-08-06T00:49:56;15.00;99.90
8633;DHT22;4354;49.832;10.746;2023-08-06T00:52:23;14.90;99.90
8633;DHT22;4354;49.832;10.746;2023-08-06T00:54:50;15.00;99.90
8633;DHT22;4354;49.832;10.746;2023-08-06T00:57:17;15.00;99.90
8633;DHT22;4354;49.832;10.746;2023-08-06T00:59:45;15.00;99.90
8633;DHT22;4354;49.832;10.746;2023-08-06T01:02:12;14.90;99.90
8633;DHT22;4354;49.832;10.746;2023-08-06T01:04:39;15.00;99.90
8633;DHT22;4354;49.832;10.746;2023-08-06T01:08:08;15.00;99.90
8633;DHT22;4354;49.832;10.746;2023-08-06T01:10:19;14.90;99.90
8633;DHT22;4354;49.832;10.746;2023-08-06T01:12:51;14.90;99.90
8633;DHT22;4354;49.832;10.746;2023-08-06T01:15:31;15.00;99.90
8633;DHT22;4354;49.832;10.746;2023-08-06T01:17:59;14.90;99.90
8633;DHT22;4354;49.832;10.746;2023-08-06T01:20:30;14.90;99.90
8633;DHT22;4354;49.832;10.746;2023-08-06T01:22:57;14.80;99.90
8633;DHT22;4354;49.832;10.746;2023-08-06T01:25:39;14.80;99.90
8633;DHT22;4354;49.832;10.746;2023-08-06T01:28:27;14.80;99.90
8633;DHT22;4354;49.832;10.746;2023-08-06T01:30:56;14.80;99.90
8633;DHT22;4354;49.832;10.746;2023-08-06T01:33:28;14.70;99.90
8633;DHT22;4354;49.832;10.746;2023-08-06T01:35:57;14.60;99.90
8633;DHT22;4354;49.832;10.746;2023-08-06T01:38:25;14.60;99.90
8633;DHT22;4354;49.832;10.746;2023-08-06T01:40:52;14.60;99.90
8633;DHT22;4354;49.832;10.746;2023-08-06T01:43:18;14.60;99.90
8633;DHT22;4354;49.832;10.746;2023-08-06T01:45:45;14.50;99.90
8633;DHT22;4354;49.832;10.746;2023-08-06T01:48:12;14.50;99.90
8633;DHT22;4354;49.832;10.746;2023-08-06T01:50:39;14.50;99.90
8633;DHT22;4354;49.832;10.746;2023-08-06T01:53:05;14.40;99.90
8633;DHT22;4354;49.832;10.746;2023-08-06T01:55:32;14.40;99.90
8633;DHT22;4354;49.832;10.746;2023-08-06T01:57:59;14.40;99.90
8633;DHT22;4354;49.832;10.746;2023-08-06T02:00:26;14.40;99.90
8633;DHT22;4354;49.832;10.746;2023-08-06T02:02:54;14.40;99.90
8633;DHT22;4354;49.832;10.746;2023-08-06T02:05:21;14.40;99.90
8633;DHT22;4354;49.832;10.746;2023-08-06T02:07:48;14.40;99.90
8633;DHT22;4354;49.832;10.746;2023-08-06T02:10:14;14.40;99.90
8633;DHT22;4354;49.832;10.746;2023-08-06T02:12:41;14.40;99.90
8633;DHT22;4354;49.832;10.746;2023-08-06T02:15:08;14.40;99.90
8633;DHT22;4354;49.832;10.746;2023-08-06T02:17:35;14.40;99.90
8633;DHT22;4354;49.832;10.746;2023-08-06T02:20:02;14.40;99.90
8633;DHT22;4354;49.832;10.746;2023-08-06T02:22:29;14.40;99.90
8633;DHT22;4354;49.832;10.746;2023-08-06T02:24:56;14.40;99.90
8633;DHT22;4354;49.832;10.746;2023-08-06T02:27:22;14.40;99.90
8633;DHT22;4354;49.832;10.746;2023-08-06T02:29:49;14.40;99.90
8633;DHT22;4354;49.832;10.746;2023-08-06T02:32:16;14.50;99.90
8633;DHT22;4354;49.832;10.746;2023-08-06T02:34:43;14.40;99.90
8633;DHT22;4354;49.832;10.746;2023-08-06T02:37:10;14.40;99.90
8633;DHT22;4354;49.832;10.746;2023-08-06T02:39:37;14.40;99.90
8633;DHT22;4354;49.832;10.746;2023-08-06T02:42:09;14.40;99.90
8633;DHT22;4354;49.832;10.746;2023-08-06T02:44:36;14.40;99.90
8633;DHT22;4354;49.832;10.746;2023-08-06T02:47:02;14.40;99.90
8633;DHT22;4354;49.832;10.746;2023-08-06T02:49:29;14.40;99.90
8633;DHT22;4354;49.832;10.746;2023-08-06T02:51:56;14.40;99.90
8633;DHT22;4354;49.832;10.746;2023-08-06T02:54:23;14.40;99.90
8633;DHT22;4354;49.832;10.746;2023-08-06T02:56:49;14.40;99.90
8633;DHT22;4354;49.832;10.746;2023-08-06T02:59:16;14.40;99.90
8633;DHT22;4354;49.832;10.746;2023-08-06T03:01:43;14.50;99.90
8633;DHT22;4354;49.832;10.746;2023-08-06T03:04:10;14.50;99.90
8633;DHT22;4354;49.832;10.746;2023-08-06T03:06:37;14.40;99.90
8633;DHT22;4354;49.832;10.746;2023-08-06T03:09:04;14.50;99.90
8633;DHT22;4354;49.832;10.746;2023-08-06T03:11:30;14.40;99.90
8633;DHT22;4354;49.832;10.746;2023-08-06T03:13:57;14.40;99.90
8633;DHT22;4354;49.832;10.746;2023-08-06T03:16:24;14.30;99.90
8633;DHT22;4354;49.832;10.746;2023-08-06T03:18:51;14.30;99.90
8633;DHT22;4354;49.832;10.746;2023-08-06T03:21:18;14.30;99.90
8633;DHT22;4354;49.832;10.746;2023-08-06T03:23:47;14.30;99.90
8633;DHT22;4354;49.832;10.746;2023-08-06T03:26:15;14.30;99.90
8633;DHT22;4354;49.832;10.746;2023-08-06T03:28:42;14.20;99.90
8633;DHT22;4354;49.832;10.746;2023-08-06T03:31:08;14.10;99.90
8633;DHT22;4354;49.832;10.746;2023-08-06T03:33:36;14.00;99.90
8633;DHT22;4354;49.832;10.746;2023-08-06T03:36:03;14.00;99.90
8633;DHT22;4354;49.832;10.746;2023-08-06T03:38:29;13.90;99.90
8633;DHT22;4354;49.832;10.746;2023-08-06T03:40:56;13.80;99.90
8633;DHT22;4354;49.832;10.746;2023-08-06T03:43:23;13.70;99.90
8633;DHT22;4354;49.832;10.746;2023-08-06T03:45:50;13.60;99.90
8633;DHT22;4354;49.832;10.746;2023-08-06T03:48:16;13.60;99.90
8633;DHT22;4354;49.832;10.746;2023-08-06T03:50:43;13.60;99.90
8633;DHT22;4354;49.832;10.746;2023-08-06T03:53:10;13.50;99.90
8633;DHT22;4354;49.832;10.746;2023-08-06T03:55:37;13.50;99.90
8633;DHT22;4354;49.832;10.746;2023-08-06T03:58:03;13.40;99.90
8633;DHT22;4354;49.832;10.746;2023-08-06T04:00:30;13.30;99.90
8633;DHT22;4354;49.832;10.746;2023-08-06T04:02:57;13.30;99.90
8633;DHT22;4354;49.832;10.746;2023-08-06T04:05:24;13.20;99.90
8633;DHT22;4354;49.832;10.746;2023-08-06T04:07:50;13.20;99.90
8633;DHT22;4354;49.832;10.746;2023-08-06T04:10:17;13.20;99.90
8633;DHT22;4354;49.832;10.746;2023-08-06T04:12:44;13.10;99.90
8633;DHT22;4354;49.832;10.746;2023-08-06T04:15:11;13.00;99.90
8633;DHT22;4354;49.832;10.746;2023-08-06T04:17:38;13.10;99.90
8633;DHT22;4354;49.832;10.746;2023-08-06T04:20:05;13.10;99.90
8633;DHT22;4354;49.832;10.746;2023-08-06T04:22:32;13.00;99.90
8633;DHT22;4354;49.832;10.746;2023-08-06T04:24:59;12.90;99.90
8633;DHT22;4354;49.832;10.746;2023-08-06T04:27:26;12.90;99.90
8633;DHT22;4354;49.832;10.746;2023-08-06T04:29:52;12.90;99.90
8633;DHT22;4354;49.832;10.746;2023-08-06T04:32:19;12.90;99.90
8633;DHT22;4354;49.832;10.746;2023-08-06T04:34:46;13.00;99.90
8633;DHT22;4354;49.832;10.746;2023-08-06T04:37:14;12.90;99.90
8633;DHT22;4354;49.832;10.746;2023-08-06T04:39:41;12.90;99.90
8633;DHT22;4354;49.832;10.746;2023-08-06T04:42:08;13.00;99.90
8633;DHT22;4354;49.832;10.746;2023-08-06T04:44:34;13.00;99.90
8633;DHT22;4354;49.832;10.746;2023-08-06T04:47:01;13.10;99.90
8633;DHT22;4354;49.832;10.746;2023-08-06T04:49:28;13.20;99.90
8633;DHT22;4354;49.832;10.746;2023-08-06T04:51:55;13.30;99.90
8633;DHT22;4354;49.832;10.746;2023-08-06T04:54:22;13.30;99.90
8633;DHT22;4354;49.832;10.746;2023-08-06T04:56:48;13.40;99.90
8633;DHT22;4354;49.832;10.746;2023-08-06T04:59:15;13.50;99.90
8633;DHT22;4354;49.832;10.746;2023-08-06T05:01:42;13.50;99.90
8633;DHT22;4354;49.832;10.746;2023-08-06T05:04:09;13.60;99.90
8633;DHT22;4354;49.832;10.746;2023-08-06T05:06:35;13.60;99.90
8633;DHT22;4354;49.832;10.746;2023-08-06T05:09:04;13.60;99.90
8633;DHT22;4354;49.832;10.746;2023-08-06T05:11:32;13.70;99.90
8633;DHT22;4354;49.832;10.746;2023-08-06T05:13:59;13.70;99.90
8633;DHT22;4354;49.832;10.746;2023-08-06T05:16:26;13.80;99.90
8633;DHT22;4354;49.832;10.746;2023-08-06T05:18:53;13.90;99.90
8633;DHT22;4354;49.832;10.746;2023-08-06T05:21:19;14.00;99.90
8633;DHT22;4354;49.832;10.746;2023-08-06T05:23:46;14.00;99.90
8633;DHT22;4354;49.832;10.746;2023-08-06T05:26:13;14.10;99.90
8633;DHT22;4354;49.832;10.746;2023-08-06T05:28:42;14.10;99.90
8633;DHT22;4354;49.832;10.746;2023-08-06T05:31:09;14.20;99.90
8633;DHT22;4354;49.832;10.746;2023-08-06T05:33:36;14.20;99.90
8633;DHT22;4354;49.832;10.746;2023-08-06T05:36:02;14.30;99.90
8633;DHT22;4354;49.832;10.746;2023-08-06T05:38:30;14.40;99.90
8633;DHT22;4354;49.832;10.746;2023-08-06T05:40:56;14.40;99.90
8633;DHT22;4354;49.832;10.746;2023-08-06T05:43:23;14.50;99.90
8633;DHT22;4354;49.832;10.746;2023-08-06T05:45:50;14.60;99.90
8633;DHT22;4354;49.832;10.746;2023-08-06T05:48:17;14.60;99.90
8633;DHT22;4354;49.832;10.746;2023-08-06T05:50:44;14.60;99.90
8633;DHT22;4354;49.832;10.746;2023-08-06T05:53:11;14.60;99.90
8633;DHT22;4354;49.832;10.746;2023-08-06T05:55:39;14.70;99.90
8633;DHT22;4354;49.832;10.746;2023-08-06T05:58:05;14.70;99.90
8633;DHT22;4354;49.832;10.746;2023-08-06T06:00:33;14.80;99.90
8633;DHT22;4354;49.832;10.746;2023-08-06T06:03:01;14.80;99.90
8633;DHT22;4354;49.832;10.746;2023-08-06T06:05:29;14.90;98.40
8633;DHT22;4354;49.832;10.746;2023-08-06T06:07:56;15.10;99.90
8633;DHT22;4354;49.832;10.746;2023-08-06T06:10:23;15.30;94.80
8633;DHT22;4354;49.832;10.746;2023-08-06T06:12:50;15.40;67.30
8633;DHT22;4354;49.832;10.746;2023-08-06T06:15:16;15.70;60.00
8633;DHT22;4354;49.832;10.746;2023-08-06T06:17:43;15.90;52.10
8633;DHT22;4354;49.832;10.746;2023-08-06T06:20:10;16.20;30.30
8633;DHT22;4354;49.832;10.746;2023-08-06T06:22:37;16.50;12.00
8633;DHT22;4354;49.832;10.746;2023-08-06T06:25:04;16.80;5.10
8633;DHT22;4354;49.832;10.746;2023-08-06T06:27:31;16.80;1.00
8633;DHT22;4354;49.832;10.746;2023-08-06T06:29:58;17.00;1.00
8633;DHT22;4354;49.832;10.746;2023-08-06T06:32:25;17.00;1.00
8633;DHT22;4354;49.832;10.746;2023-08-06T06:34:52;17.10;1.00
8633;DHT22;4354;49.832;10.746;2023-08-06T06:37:18;17.10;1.00
8633;DHT22;4354;49.832;10.746;2023-08-06T06:39:45;17.00;1.00
8633;DHT22;4354;49.832;10.746;2023-08-06T06:42:12;16.90;1.00
8633;DHT22;4354;49.832;10.746;2023-08-06T06:44:39;16.80;1.00
8633;DHT22;4354;49.832;10.746;2023-08-06T06:47:06;16.60;1.00
8633;DHT22;4354;49.832;10.746;2023-08-06T06:49:33;16.50;4.50
8633;DHT22;4354;49.832;10.746;2023-08-06T06:51:59;16.30;5.90
8633;DHT22;4354;49.832;10.746;2023-08-06T06:54:26;16.20;1.00
8633;DHT22;4354;49.832;10.746;2023-08-06T06:56:53;16.20;11.70
8633;DHT22;4354;49.832;10.746;2023-08-06T06:59:20;16.30;6.30
8633;DHT22;4354;49.832;10.746;2023-08-06T07:01:46;16.40;3.70
8633;DHT22;4354;49.832;10.746;2023-08-06T07:04:13;16.50;1.00
8633;DHT22;4354;49.832;10.746;2023-08-06T07:06:40;16.70;18.30
8633;DHT22;4354;49.832;10.746;2023-08-06T07:09:07;16.80;1.00
8633;DHT22;4354;49.832;10.746;2023-08-06T07:11:33;16.80;1.00
8633;DHT22;4354;49.832;10.746;2023-08-06T07:14:00;16.90;1.00
8633;DHT22;4354;49.832;10.746;2023-08-06T07:16:28;17.00;1.00
8633;DHT22;4354;49.832;10.746;2023-08-06T07:18:56;16.90;1.00
8633;DHT22;4354;49.832;10.746;2023-08-06T07:21:22;17.00;1.00
8633;DHT22;4354;49.832;10.746;2023-08-06T07:23:49;17.00;1.00
8633;DHT22;4354;49.832;10.746;2023-08-06T07:26:17;17.00;1.00
8633;DHT22;4354;49.832;10.746;2023-08-06T07:28:44;17.20;1.00
8633;DHT22;4354;49.832;10.746;2023-08-06T07:31:11;17.30;1.00
8633;DHT22;4354;49.832;10.746;2023-08-06T07:33:39;17.40;1.00
8633;DHT22;4354;49.832;10.746;2023-08-06T07:36:12;17.80;1.00
8633;DHT22;4354;49.832;10.746;2023-08-06T07:38:40;18.00;99.90
8633;DHT22;4354;49.832;10.746;2023-08-06T07:41:07;18.00;1.00
8633;DHT22;4354;49.832;10.746;2023-08-06T07:43:34;18.40;1.00
8633;DHT22;4354;49.832;10.746;2023-08-06T07:46:03;18.50;1.00
8633;DHT22;4354;49.832;10.746;2023-08-06T07:48:30;18.40;99.90
8633;DHT22;4354;49.832;10.746;2023-08-06T07:50:57;18.10;1.00
8633;DHT22;4354;49.832;10.746;2023-08-06T07:53:25;17.80;1.00
8633;DHT22;4354;49.832;10.746;2023-08-06T07:55:56;17.50;1.00
8633;DHT22;4354;49.832;10.746;2023-08-06T07:58:24;17.40;1.00
8633;DHT22;4354;49.832;10.746;2023-08-06T08:00:51;17.20;1.00
8633;DHT22;4354;49.832;10.746;2023-08-06T08:03:18;16.80;1.00
8633;DHT22;4354;49.832;10.746;2023-08-06T08:05:46;16.70;1.00
8633;DHT22;4354;49.832;10.746;2023-08-06T08:08:13;16.50;1.00
8633;DHT22;4354;49.832;10.746;2023-08-06T08:10:41;16.20;9.30
8633;DHT22;4354;49.832;10.746;2023-08-06T08:13:08;16.30;25.90
8633;DHT22;4354;49.832;10.746;2023-08-06T08:15:35;16.50;17.70
8633;DHT22;4354;49.832;10.746;2023-08-06T08:18:02;16.80;26.00
8633;DHT22;4354;49.832;10.746;2023-08-06T08:20:29;17.30;18.20
8633;DHT22;4354;49.832;10.746;2023-08-06T08:23:02;17.70;1.00
8633;DHT22;4354;49.832;10.746;2023-08-06T08:25:29;18.00;1.00
8633;DHT22;4354;49.832;10.746;2023-08-06T08:27:57;18.00;59.30
8633;DHT22;4354;49.832;10.746;2023-08-06T08:30:24;18.30;1.00
8633;DHT22;4354;49.832;10.746;2023-08-06T08:32:52;18.80;65.00
8633;DHT22;4354;49.832;10.746;2023-08-06T08:35:19;19.40;1.00
8633;DHT22;4354;49.832;10.746;2023-08-06T08:37:46;19.40;99.90
8633;DHT22;4354;49.832;10.746;2023-08-06T08:40:14;19.30;99.90
8633;DHT22;4354;49.832;10.746;2023-08-06T08:42:42;19.00;99.90
8633;DHT22;4354;49.832;10.746;2023-08-06T08:45:14;18.60;1.00
8633;DHT22;4354;49.832;10.746;2023-08-06T08:47:41;18.20;1.00
8633;DHT22;4354;49.832;10.746;2023-08-06T08:50:10;18.00;1.00
8633;DHT22;4354;49.832;10.746;2023-08-06T08:52:41;17.70;1.00
8633;DHT22;4354;49.832;10.746;2023-08-06T08:55:09;17.80;35.60
8633;DHT22;4354;49.832;10.746;2023-08-06T08:57:36;18.00;1.00
8633;DHT22;4354;49.832;10.746;2023-08-06T09:00:03;18.30;99.90
8633;DHT22;4354;49.832;10.746;2023-08-06T09:02:32;18.30;1.00
8633;DHT22;4354;49.832;10.746;2023-08-06T09:05:01;18.10;99.90
8633;DHT22;4354;49.832;10.746;2023-08-06T09:07:41;17.90;99.90
8633;DHT22;4354;49.832;10.746;2023-08-06T09:10:10;17.70;1.00
8633;DHT22;4354;49.832;10.746;2023-08-06T09:12:37;17.40;1.00
8633;DHT22;4354;49.832;10.746;2023-08-06T09:15:04;17.20;1.00
8633;DHT22;4354;49.832;10.746;2023-08-06T09:17:31;17.20;1.00
8633;DHT22;4354;49.832;10.746;2023-08-06T09:19:58;17.40;1.00
8633;DHT22;4354;49.832;10.746;2023-08-06T09:22:34;17.10;1.00
8633;DHT22;4354;49.832;10.746;2023-08-06T09:25:01;17.10;1.00
8633;DHT22;4354;49.832;10.746;2023-08-06T09:27:28;17.10;1.00
8633;DHT22;4354;49.832;10.746;2023-08-06T09:29:55;17.30;1.00
8633;DHT22;4354;49.832;10.746;2023-08-06T09:32:22;17.60;1.00
8633;DHT22;4354;49.832;10.746;2023-08-06T09:34:55;17.80;1.00
8633;DHT22;4354;49.832;10.746;2023-08-06T09:37:23;18.10;99.90
8633;DHT22;4354;49.832;10.746;2023-08-06T09:39:49;18.30;99.90
8633;DHT22;4354;49.832;10.746;2023-08-06T09:42:18;18.30;99.90
8633;DHT22;4354;49.832;10.746;2023-08-06T09:44:45;18.20;1.00
8633;DHT22;4354;49.832;10.746;2023-08-06T09:47:11;18.20;1.00
8633;DHT22;4354;49.832;10.746;2023-08-06T09:49:42;18.30;99.90
8633;DHT22;4354;49.832;10.746;2023-08-06T09:52:13;18.50;99.90
8633;DHT22;4354;49.832;10.746;2023-08-06T09:54:42;18.20;68.10
8633;DHT22;4354;49.832;10.746;2023-08-06T09:57:11;18.20;7.20
8633;DHT22;4354;49.832;10.746;2023-08-06T09:59:39;18.20;1.00
8633;DHT22;4354;49.832;10.746;2023-08-06T10:02:12;18.40;99.90
8633;DHT22;4354;49.832;10.746;2023-08-06T10:04:40;18.90;1.00
8633;DHT22;4354;49.832;10.746;2023-08-06T10:07:11;19.30;1.00
8633;DHT22;4354;49.832;10.746;2023-08-06T10:09:38;19.40;99.90
8633;DHT22;4354;49.832;10.746;2023-08-06T10:12:05;19.50;99.90
8633;DHT22;4354;49.832;10.746;2023-08-06T10:14:34;20.50;1.00
8633;DHT22;4354;49.832;10.746;2023-08-06T10:17:02;21.70;26.60
8633;DHT22;4354;49.832;10.746;2023-08-06T10:19:30;22.20;1.00
8633;DHT22;4354;49.832;10.746;2023-08-06T10:22:14;23.30;1.00
8633;DHT22;4354;49.832;10.746;2023-08-06T10:24:54;25.60;99.90
8633;DHT22;4354;49.832;10.746;2023-08-06T10:27:35;26.80;99.90
8633;DHT22;4354;49.832;10.746;2023-08-06T10:32:54;25.10;99.90
8633;DHT22;4354;49.832;10.746;2023-08-06T10:35:45;23.60;99.90
8633;DHT22;4354;49.832;10.746;2023-08-06T10:38:22;23.30;99.90
8633;DHT22;4354;49.832;10.746;2023-08-06T10:43:31;23.70;99.90
8633;DHT22;4354;49.832;10.746;2023-08-06T10:46:00;24.30;99.90
8633;DHT22;4354;49.832;10.746;2023-08-06T10:48:31;25.00;99.90
8633;DHT22;4354;49.832;10.746;2023-08-06T10:51:00;24.50;99.90
8633;DHT22;4354;49.832;10.746;2023-08-06T10:53:27;23.60;99.90
8633;DHT22;4354;49.832;10.746;2023-08-06T10:55:59;23.60;99.90
8633;DHT22;4354;49.832;10.746;2023-08-06T10:58:34;23.70;99.90
8633;DHT22;4354;49.832;10.746;2023-08-06T11:01:01;23.90;99.90
8633;DHT22;4354;49.832;10.746;2023-08-06T11:03:29;24.10;99.90
8633;DHT22;4354;49.832;10.746;2023-08-06T11:05:55;25.40;99.90
8633;DHT22;4354;49.832;10.746;2023-08-06T11:08:29;25.30;99.90
8633;DHT22;4354;49.832;10.746;2023-08-06T11:11:16;24.30;99.90
8633;DHT22;4354;49.832;10.746;2023-08-06T11:13:45;23.00;99.90
8633;DHT22;4354;49.832;10.746;2023-08-06T11:16:17;22.50;99.90
8633;DHT22;4354;49.832;10.746;2023-08-06T11:18:46;21.80;99.90
8633;DHT22;4354;49.832;10.746;2023-08-06T11:21:14;21.10;99.90
8633;DHT22;4354;49.832;10.746;2023-08-06T11:23:41;20.30;99.90
8633;DHT22;4354;49.832;10.746;2023-08-06T11:26:08;20.00;1.00
8633;DHT22;4354;49.832;10.746;2023-08-06T11:28:35;20.80;1.00
8633;DHT22;4354;49.832;10.746;2023-08-06T11:31:02;22.50;99.90
8633;DHT22;4354;49.832;10.746;2023-08-06T11:33:30;24.00;1.00
8633;DHT22;4354;49.832;10.746;2023-08-06T11:35:59;25.30;1.00
8633;DHT22;4354;49.832;10.746;2023-08-06T11:38:30;25.60;99.90
8633;DHT22;4354;49.832;10.746;2023-08-06T11:40:57;25.40;99.90
8633;DHT22;4354;49.832;10.746;2023-08-06T11:43:24;24.50;99.90
8633;DHT22;4354;49.832;10.746;2023-08-06T11:45:51;24.60;99.90
8633;DHT22;4354;49.832;10.746;2023-08-06T11:48:20;24.80;99.90
8633;DHT22;4354;49.832;10.746;2023-08-06T11:50:47;25.10;99.90
8633;DHT22;4354;49.832;10.746;2023-08-06T11:53:14;24.40;99.90
8633;DHT22;4354;49.832;10.746;2023-08-06T11:55:42;23.90;99.90
8633;DHT22;4354;49.832;10.746;2023-08-06T11:58:10;23.50;99.90
8633;DHT22;4354;49.832;10.746;2023-08-06T12:00:38;22.80;99.90
8633;DHT22;4354;49.832;10.746;2023-08-06T12:03:05;22.00;99.90
8633;DHT22;4354;49.832;10.746;2023-08-06T12:05:33;21.40;99.90
8633;DHT22;4354;49.832;10.746;2023-08-06T12:08:01;21.90;99.90
8633;DHT22;4354;49.832;10.746;2023-08-06T12:10:31;22.00;99.90
8633;DHT22;4354;49.832;10.746;2023-08-06T12:12:58;22.10;99.90
8633;DHT22;4354;49.832;10.746;2023-08-06T12:15:26;21.50;99.90
8633;DHT22;4354;49.832;10.746;2023-08-06T12:17:53;22.00;99.90
8633;DHT22;4354;49.832;10.746;2023-08-06T12:20:19;22.90;99.90
8633;DHT22;4354;49.832;10.746;2023-08-06T12:22:46;23.80;99.90
8633;DHT22;4354;49.832;10.746;2023-08-06T12:25:13;23.90;99.90
8633;DHT22;4354;49.832;10.746;2023-08-06T12:27:44;24.40;99.90
8633;DHT22;4354;49.832;10.746;2023-08-06T12:30:12;24.50;99.90
8633;DHT22;4354;49.832;10.746;2023-08-06T12:32:39;23.80;99.90
8633;DHT22;4354;49.832;10.746;2023-08-06T12:35:07;23.00;99.90
8633;DHT22;4354;49.832;10.746;2023-08-06T12:37:35;21.90;99.90
8633;DHT22;4354;49.832;10.746;2023-08-06T12:40:02;21.20;99.90
8633;DHT22;4354;49.832;10.746;2023-08-06T12:42:50;20.90;1.00
8633;DHT22;4354;49.832;10.746;2023-08-06T12:45:19;20.60;1.00
8633;DHT22;4354;49.832;10.746;2023-08-06T12:47:48;20.70;14.40
8633;DHT22;4354;49.832;10.746;2023-08-06T12:50:16;21.10;1.00
8633;DHT22;4354;49.832;10.746;2023-08-06T12:52:44;21.60;1.00
8633;DHT22;4354;49.832;10.746;2023-08-06T12:55:11;22.60;1.00
8633;DHT22;4354;49.832;10.746;2023-08-06T12:57:38;23.00;99.90
8633;DHT22;4354;49.832;10.746;2023-08-06T13:00:23;22.50;99.90
8633;DHT22;4354;49.832;10.746;2023-08-06T13:02:50;22.10;99.90
8633;DHT22;4354;49.832;10.746;2023-08-06T13:05:17;21.60;99.90
8633;DHT22;4354;49.832;10.746;2023-08-06T13:07:44;21.20;99.90
8633;DHT22;4354;49.832;10.746;2023-08-06T13:10:11;21.30;99.90
8633;DHT22;4354;49.832;10.746;2023-08-06T13:12:37;20.90;99.90
8633;DHT22;4354;49.832;10.746;2023-08-06T13:15:05;21.30;99.90
8633;DHT22;4354;49.832;10.746;2023-08-06T13:17:32;22.20;99.90
8633;DHT22;4354;49.832;10.746;2023-08-06T13:19:58;22.90;99.90
8633;DHT22;4354;49.832;10.746;2023-08-06T13:22:25;22.90;99.90
8633;DHT22;4354;49.832;10.746;2023-08-06T13:24:52;22.40;99.90
8633;DHT22;4354;49.832;10.746;2023-08-06T13:27:19;22.60;99.90
8633;DHT22;4354;49.832;10.746;2023-08-06T13:29:46;22.20;99.90
8633;DHT22;4354;49.832;10.746;2023-08-06T13:32:12;21.70;99.90
8633;DHT22;4354;49.832;10.746;2023-08-06T13:34:39;21.40;99.90
8633;DHT22;4354;49.832;10.746;2023-08-06T13:37:06;20.80;1.00
8633;DHT22;4354;49.832;10.746;2023-08-06T13:39:33;21.10;1.00
8633;DHT22;4354;49.832;10.746;2023-08-06T13:42:00;21.30;1.00
8633;DHT22;4354;49.832;10.746;2023-08-06T13:44:26;21.20;1.00
8633;DHT22;4354;49.832;10.746;2023-08-06T13:46:53;21.50;1.00
8633;DHT22;4354;49.832;10.746;2023-08-06T13:49:20;21.70;99.90
8633;DHT22;4354;49.832;10.746;2023-08-06T13:51:47;21.70;99.90
8633;DHT22;4354;49.832;10.746;2023-08-06T13:54:14;21.60;99.90
8633;DHT22;4354;49.832;10.746;2023-08-06T13:56:40;21.20;99.90
8633;DHT22;4354;49.832;10.746;2023-08-06T13:59:07;20.80;99.90
8633;DHT22;4354;49.832;10.746;2023-08-06T14:01:34;20.70;1.00
8633;DHT22;4354;49.832;10.746;2023-08-06T14:04:15;20.50;1.00
8633;DHT22;4354;49.832;10.746;2023-08-06T14:06:42;20.30;1.00
8633;DHT22;4354;49.832;10.746;2023-08-06T14:09:08;20.00;1.00
8633;DHT22;4354;49.832;10.746;2023-08-06T14:11:38;19.70;1.00
8633;DHT22;4354;49.832;10.746;2023-08-06T14:14:05;19.40;23.20
8633;DHT22;4354;49.832;10.746;2023-08-06T14:16:32;19.00;1.00
8633;DHT22;4354;49.832;10.746;2023-08-06T14:18:59;18.40;99.90
8633;DHT22;4354;49.832;10.746;2023-08-06T14:21:26;18.20;99.90
8633;DHT22;4354;49.832;10.746;2023-08-06T14:23:52;18.10;1.00
8633;DHT22;4354;49.832;10.746;2023-08-06T14:26:19;17.90;99.90
8633;DHT22;4354;49.832;10.746;2023-08-06T14:28:46;17.70;1.00
8633;DHT22;4354;49.832;10.746;2023-08-06T14:31:13;17.60;99.90
8633;DHT22;4354;49.832;10.746;2023-08-06T14:33:40;17.30;1.00
8633;DHT22;4354;49.832;10.746;2023-08-06T14:36:07;17.10;1.00
8633;DHT22;4354;49.832;10.746;2023-08-06T14:38:33;16.90;1.00
8633;DHT22;4354;49.832;10.746;2023-08-06T14:41:12;16.70;1.00
8633;DHT22;4354;49.832;10.746;2023-08-06T14:43:40;16.60;1.00
8633;DHT22;4354;49.832;10.746;2023-08-06T14:46:07;16.40;1.00
8633;DHT22;4354;49.832;10.746;2023-08-06T14:48:33;16.40;1.00
8633;DHT22;4354;49.832;10.746;2023-08-06T14:51:00;16.40;1.00
8633;DHT22;4354;49.832;10.746;2023-08-06T14:53:27;16.50;1.00
8633;DHT22;4354;49.832;10.746;2023-08-06T14:55:54;16.60;1.00
8633;DHT22;4354;49.832;10.746;2023-08-06T14:58:21;16.50;1.00
8633;DHT22;4354;49.832;10.746;2023-08-06T15:00:48;16.50;1.00
8633;DHT22;4354;49.832;10.746;2023-08-06T15:03:15;16.40;1.00
8633;DHT22;4354;49.832;10.746;2023-08-06T15:05:49;16.50;1.00
8633;DHT22;4354;49.832;10.746;2023-08-06T15:08:17;16.30;1.00
8633;DHT22;4354;49.832;10.746;2023-08-06T15:10:50;16.30;1.00
8633;DHT22;4354;49.832;10.746;2023-08-06T15:13:17;16.30;1.00
8633;DHT22;4354;49.832;10.746;2023-08-06T15:15:49;16.30;1.00
8633;DHT22;4354;49.832;10.746;2023-08-06T15:18:16;16.40;1.00
8633;DHT22;4354;49.832;10.746;2023-08-06T15:20:43;16.30;1.00
8633;DHT22;4354;49.832;10.746;2023-08-06T15:23:09;16.20;1.00
8633;DHT22;4354;49.832;10.746;2023-08-06T15:25:36;16.10;1.00
8633;DHT22;4354;49.832;10.746;2023-08-06T15:28:03;16.10;1.00
8633;DHT22;4354;49.832;10.746;2023-08-06T15:30:30;16.00;1.00
8633;DHT22;4354;49.832;10.746;2023-08-06T15:32:56;16.00;1.00
8633;DHT22;4354;49.832;10.746;2023-08-06T15:35:23;15.90;1.00
8633;DHT22;4354;49.832;10.746;2023-08-06T15:37:50;15.80;1.00
8633;DHT22;4354;49.832;10.746;2023-08-06T15:40:17;15.70;1.00
8633;DHT22;4354;49.832;10.746;2023-08-06T15:42:44;15.60;21.40
8633;DHT22;4354;49.832;10.746;2023-08-06T15:45:11;15.60;23.80
8633;DHT22;4354;49.832;10.746;2023-08-06T15:47:37;15.50;26.60
8633;DHT22;4354;49.832;10.746;2023-08-06T15:50:08;15.40;33.10
8633;DHT22;4354;49.832;10.746;2023-08-06T15:52:36;15.30;41.30
8633;DHT22;4354;49.832;10.746;2023-08-06T15:55:03;15.20;48.20
8633;DHT22;4354;49.832;10.746;2023-08-06T15:57:32;15.10;47.10
8633;DHT22;4354;49.832;10.746;2023-08-06T16:00:01;14.90;60.00